Time;durP1;ratioP1;P1;durP2;ratioP2;P2;SDS_P1;SDS_P2;PMS_P1;PMS_P2;Temp;Humidity;BMP_temperature;BMP_pressure;BME280_temperature;BME280_humidity;BME280_pressure;Samples;Min_cycle;Max_cycle;Signal;HPM_P1;HPM_P2
2022/08/14 00:02:07;;;;;;;8.50;6.05;;;;;;;22.21;50.34;101073.72;5018975;28;20382;-72
2022/08/14 00:04:34;;;;;;;7.70;5.88;;;;;;;22.23;50.67;101074.31;5016812;28;20052;-72
2022/08/14 00:07:00;;;;;;;7.63;6.10;;;;;;;22.09;50.79;101072.59;5017242;28;20021;-72
2022/08/14 00:09:25;;;;;;;7.15;5.90;;;;;;;22.11;50.50;101067.97;5016272;28;20049;-73
2022/08/14 00:11:50;;;;;;;7.47;5.75;;;;;;;22.09;50.52;101062.03;4998574;28;20850;-72
2022/08/14 00:14:17;;;;;;;8.05;5.70;;;;;;;22.07;50.06;101053.47;5014448;28;20034;-72
2022/08/14 00:16:42;;;;;;;8.63;6.18;;;;;;;21.99;51.22;101066.84;5014555;28;20018;-72
2022/08/14 00:19:08;;;;;;;7.53;6.20;;;;;;;22.08;50.50;101059.56;5027190;28;20045;-72
2022/08/14 00:21:34;;;;;;;7.07;5.75;;;;;;;21.88;51.47;101062.91;5018232;28;20076;-72
2022/08/14 00:23:59;;;;;;;8.57;6.20;;;;;;;22.07;50.72;101058.75;5023962;28;20035;-73
2022/08/14 00:26:25;;;;;;;7.00;5.88;;;;;;;21.97;51.39;101055.69;5017561;28;20032;-77
2022/08/14 00:28:52;;;;;;;8.30;6.00;;;;;;;21.87;51.45;101053.38;5025161;28;20025;-72
2022/08/14 00:31:18;;;;;;;7.20;6.20;;;;;;;21.98;51.17;101054.66;5024362;28;20109;-72
2022/08/14 00:33:43;;;;;;;7.97;6.10;;;;;;;21.87;51.76;101042.00;5023642;28;20123;-72
2022/08/14 00:36:09;;;;;;;8.02;6.30;;;;;;;21.78;52.14;101043.16;5038956;28;20018;-72
2022/08/14 00:38:35;;;;;;;8.15;6.15;;;;;;;21.73;52.69;101039.28;5037355;28;20036;-72
2022/08/14 00:41:05;;;;;;;7.53;6.65;;;;;;;21.77;52.27;101044.16;5030387;28;20467;-73
2022/08/14 00:43:33;;;;;;;7.70;6.70;;;;;;;21.58;52.92;101043.84;5016541;28;20037;-72
2022/08/14 00:46:07;;;;;;;7.50;6.70;;;;;;;21.58;52.91;101033.28;5038327;28;20017;-72
2022/08/14 00:48:32;;;;;;;10.00;6.72;;;;;;;21.60;53.13;101036.53;5038641;28;20033;-72
2022/08/14 00:50:58;;;;;;;8.05;6.88;;;;;;;21.59;52.98;101034.91;5037146;28;20079;-72
2022/08/14 00:53:24;;;;;;;7.85;6.35;;;;;;;21.61;53.29;101030.25;5007200;28;20075;-72
2022/08/14 00:55:50;;;;;;;8.43;6.53;;;;;;;21.55;53.15;101017.81;5014448;28;20036;-73
2022/08/14 00:58:31;;;;;;;8.25;7.10;;;;;;;21.51;53.40;101021.88;5025060;28;20458;-72
2022/08/14 01:01:09;;;;;;;8.23;6.68;;;;;;;21.54;53.26;101015.38;5022100;28;20025;-72
2022/08/14 01:03:38;;;;;;;8.38;7.15;;;;;;;21.40;53.98;101014.47;5015016;28;20033;-72
2022/08/14 01:06:07;;;;;;;9.20;7.20;;;;;;;21.38;54.38;101011.19;5015311;28;20036;-73
2022/08/14 01:08:34;;;;;;;9.52;7.57;;;;;;;21.39;54.48;101012.81;5018941;28;20045;-72
2022/08/14 01:11:00;;;;;;;9.55;7.13;;;;;;;21.37;54.43;101004.28;5012715;28;20033;-72
2022/08/14 01:13:29;;;;;;;10.45;7.25;;;;;;;21.36;54.62;101015.84;5015199;28;20508;-72
2022/08/14 01:16:00;;;;;;;7.47;6.78;;;;;;;21.31;54.72;101005.06;5021956;28;20029;-73
2022/08/14 01:21:16;;;;;;;9.85;7.00;;;;;;;21.33;54.67;101003.03;5015951;28;20164;-73
2022/08/14 01:23:46;;;;;;;8.07;6.78;;;;;;;21.19;54.70;100995.00;5017664;28;20029;-72
2022/08/14 01:26:15;;;;;;;7.63;6.93;;;;;;;21.25;54.12;101001.31;5021397;28;20024;-72
2022/08/14 01:28:41;;;;;;;7.50;6.70;;;;;;;21.26;53.91;100986.31;5033351;28;20037;-72
2022/08/14 01:31:14;;;;;;;7.35;6.60;;;;;;;21.30;53.79;100982.31;5021377;28;20021;-72
2022/08/14 01:33:45;;;;;;;7.43;6.63;;;;;;;21.24;54.17;100989.16;5039254;28;20040;-73
2022/08/14 01:36:11;;;;;;;8.68;6.80;;;;;;;21.17;54.28;100978.56;5039794;28;20031;-72
2022/08/14 01:38:41;;;;;;;8.05;6.53;;;;;;;21.23;54.11;100976.16;5018303;28;20038;-72
2022/08/14 01:41:11;;;;;;;8.98;6.70;;;;;;;21.29;54.11;100980.66;5024515;28;20131;-72
2022/08/14 01:44:12;;;;;;;7.30;6.57;;;;;;;21.23;53.63;100981.44;5026763;28;20025;-72
2022/08/14 01:46:40;;;;;;;7.65;6.80;;;;;;;21.10;54.53;100982.94;4984640;28;20068;-72
2022/08/14 01:49:10;;;;;;;8.55;6.88;;;;;;;21.13;54.33;100981.75;5007421;28;20053;-73
2022/08/14 01:51:38;;;;;;;9.07;6.90;;;;;;;21.06;54.83;100976.44;5036904;28;20080;-72
2022/08/14 01:54:19;;;;;;;7.85;7.03;;;;;;;21.10;54.37;100976.84;5033108;28;20032;-73
2022/08/14 01:56:44;;;;;;;8.05;7.22;;;;;;;20.96;55.28;100973.28;5023192;28;20040;-72
2022/08/14 01:59:16;;;;;;;7.75;6.95;;;;;;;20.88;55.68;100970.78;5019791;28;20030;-72
2022/08/14 02:01:42;;;;;;;8.30;7.38;;;;;;;20.96;55.39;100970.66;5018548;28;20025;-72
2022/08/14 02:04:08;;;;;;;8.52;7.72;;;;;;;20.86;55.79;100975.41;5031250;28;20033;-72
2022/08/14 02:06:36;;;;;;;10.10;7.55;;;;;;;20.85;55.27;100968.53;5042901;28;20032;-72
2022/08/14 02:09:03;;;;;;;7.82;6.68;;;;;;;20.81;55.34;100970.72;5034650;28;20073;-72
2022/08/14 02:11:29;;;;;;;7.77;6.97;;;;;;;20.70;55.69;100963.31;5031906;28;20033;-72
2022/08/14 02:13:58;;;;;;;8.00;6.90;;;;;;;20.79;54.93;100964.00;5028576;28;20036;-73
2022/08/14 02:16:28;;;;;;;9.07;6.75;;;;;;;20.82;54.99;100974.19;5011422;28;20021;-73
2022/08/14 02:18:56;;;;;;;8.02;6.95;;;;;;;20.71;55.47;100966.78;4994746;28;20442;-72
2022/08/14 02:21:22;;;;;;;10.05;7.38;;;;;;;20.61;55.68;100957.34;5025054;28;20036;-72
2022/08/14 02:23:49;;;;;;;7.93;7.13;;;;;;;20.58;56.03;100968.25;5031272;28;20468;-72
2022/08/14 02:26:20;;;;;;;8.68;7.07;;;;;;;20.57;56.43;100964.00;5023070;28;20060;-72
2022/08/14 02:28:49;;;;;;;8.20;7.40;;;;;;;20.67;56.05;100964.50;5019504;28;20144;-72
2022/08/14 02:31:14;;;;;;;;;;;;;;;20.90;54.31;100976.69;5024172;28;20025;-72
2022/08/14 02:33:40;;;;;;;7.93;7.13;;;;;;;20.63;56.13;100965.88;5043269;28;19920;-72
2022/08/14 02:36:07;;;;;;;8.32;6.97;;;;;;;20.44;57.05;100966.47;5006632;28;20021;-72
2022/08/14 02:38:33;;;;;;;8.50;7.22;;;;;;;20.58;55.75;100957.72;5019077;28;20142;-72
2022/08/14 02:40:59;;;;;;;9.75;7.35;;;;;;;20.42;56.68;100964.03;5022287;28;20111;-72
2022/08/14 02:43:28;;;;;;;8.38;7.32;;;;;;;20.40;56.83;100967.84;5020822;28;20517;-72
2022/08/14 02:45:53;;;;;;;8.85;7.28;;;;;;;20.29;57.33;100969.13;5020799;28;20029;-72
2022/08/14 02:48:18;;;;;;;7.93;7.03;;;;;;;20.33;57.03;100969.59;5017008;28;20030;-72
2022/08/14 02:50:44;;;;;;;8.50;7.07;;;;;;;20.30;57.14;100959.41;5023283;28;20119;-72
2022/08/14 02:53:10;;;;;;;7.85;7.05;;;;;;;20.29;56.94;100963.03;5009956;28;20025;-74
2022/08/14 02:55:39;;;;;;;9.18;7.22;;;;;;;20.12;57.77;100955.34;5031029;28;20018;-72
2022/08/14 02:58:04;;;;;;;9.52;7.40;;;;;;;20.27;56.84;100954.53;5029828;28;20110;-74
2022/08/14 03:00:31;;;;;;;8.85;7.70;;;;;;;20.24;57.22;100960.16;5011508;28;20471;-72
2022/08/14 03:02:57;;;;;;;9.20;7.72;;;;;;;20.26;57.02;100966.06;5026979;28;20024;-72
2022/08/14 03:05:22;;;;;;;9.05;7.82;;;;;;;20.25;56.80;100952.09;5014645;28;20029;-72
2022/08/14 03:07:48;;;;;;;8.23;7.25;;;;;;;20.10;57.40;100949.47;5013846;28;20158;-73
2022/08/14 03:10:13;;;;;;;11.30;7.75;;;;;;;20.04;57.84;100939.66;5016894;28;20029;-75
2022/08/14 03:12:39;;;;;;;9.85;8.07;;;;;;;20.10;57.71;100944.19;5015519;28;20049;-73
2022/08/14 03:15:12;;;;;;;10.43;8.40;;;;;;;20.07;58.59;100949.84;5013913;28;20385;-73
2022/08/14 03:17:37;;;;;;;9.75;8.15;;;;;;;20.09;58.33;100942.56;5006920;28;20470;-73
2022/08/14 03:20:05;;;;;;;10.00;8.23;;;;;;;20.06;58.67;100942.94;5018560;28;20033;-73
2022/08/14 03:22:31;;;;;;;9.32;8.18;;;;;;;20.09;58.68;100941.75;5017473;28;20026;-72
2022/08/14 03:24:57;;;;;;;11.45;8.65;;;;;;;20.01;59.09;100940.03;5028330;28;20492;-72
2022/08/14 03:27:22;;;;;;;9.75;8.32;;;;;;;19.98;59.49;100935.16;5011282;28;20022;-73
2022/08/14 03:29:48;;;;;;;9.90;8.60;;;;;;;19.88;59.55;100930.16;5028600;28;20033;-73
2022/08/14 03:32:13;;;;;;;10.00;9.10;;;;;;;19.80;60.45;100938.16;5020948;28;20156;-73
2022/08/14 03:34:39;;;;;;;10.57;9.13;;;;;;;19.79;60.51;100933.09;5010514;28;20018;-72
2022/08/14 03:37:04;;;;;;;11.00;9.90;;;;;;;19.76;60.48;100920.28;5004421;28;20594;-74
2022/08/14 03:39:29;;;;;;;11.02;10.02;;;;;;;19.79;60.92;100927.81;5025547;28;20063;-72
2022/08/14 03:41:55;;;;;;;10.85;9.77;;;;;;;19.77;61.09;100927.16;5023019;28;20032;-73
2022/08/14 03:44:22;;;;;;;11.52;10.43;;;;;;;19.69;61.71;100924.66;5036912;28;20037;-72
2022/08/14 03:46:50;;;;;;;11.52;10.25;;;;;;;19.68;61.69;100923.84;5013590;28;20032;-73
2022/08/14 03:49:19;;;;;;;11.77;10.60;;;;;;;19.63;61.75;100932.28;5018250;28;20151;-75
2022/08/14 03:51:44;;;;;;;11.70;10.50;;;;;;;19.56;61.91;100926.06;5025702;28;20090;-72
2022/08/14 03:54:11;;;;;;;11.77;10.60;;;;;;;19.65;61.88;100931.25;5043218;28;20407;-73
2022/08/14 03:56:39;;;;;;;11.52;10.52;;;;;;;19.63;61.76;100927.00;5034017;28;20025;-72
2022/08/14 03:59:07;;;;;;;11.80;10.68;;;;;;;19.57;62.12;100932.16;5032335;28;20048;-72
2022/08/14 04:01:32;;;;;;;12.18;10.88;;;;;;;19.54;62.17;100922.78;5018192;28;20496;-73
2022/08/14 04:04:01;;;;;;;12.00;10.90;;;;;;;19.51;62.18;100923.16;5006861;28;20034;-72
2022/08/14 04:06:27;;;;;;;13.07;11.88;;;;;;;19.48;62.45;100934.03;5012815;28;20029;-72
2022/08/14 04:08:52;;;;;;;12.05;10.93;;;;;;;19.49;62.80;100934.84;5019853;28;20050;-72
2022/08/14 04:11:18;;;;;;;12.60;11.48;;;;;;;19.39;63.27;100929.06;5027691;28;20393;-72
2022/08/14 04:13:45;;;;;;;13.65;12.35;;;;;;;19.40;62.92;100934.13;5024164;28;20045;-72
2022/08/14 04:16:16;;;;;;;13.10;11.90;;;;;;;19.36;63.20;100924.97;5020003;28;20026;-72
2022/08/14 04:18:49;;;;;;;13.60;12.40;;;;;;;19.38;63.34;100933.47;5029095;28;20036;-72
2022/08/14 04:21:15;;;;;;;13.57;12.38;;;;;;;19.17;64.24;100930.75;5030636;28;20021;-72
2022/08/14 04:23:42;;;;;;;13.90;12.60;;;;;;;19.24;64.03;100929.84;5014996;28;20462;-72
2022/08/14 04:26:11;;;;;;;14.13;12.82;;;;;;;19.23;64.63;100930.03;5009017;28;20037;-72
2022/08/14 04:28:40;;;;;;;13.60;12.40;;;;;;;19.05;64.70;100918.03;5023189;28;20029;-72
2022/08/14 04:31:05;;;;;;;14.75;13.32;;;;;;;19.14;64.63;100921.38;5035442;28;20072;-74
2022/08/14 04:33:32;;;;;;;14.43;13.05;;;;;;;19.17;64.56;100915.78;5041696;28;20500;-74
2022/08/14 04:35:57;;;;;;;15.15;13.85;;;;;;;19.10;64.71;100907.81;5023495;28;20033;-72
2022/08/14 04:43:51;;;;;;;15.77;14.38;;;;;;;19.03;65.85;100909.50;5026928;28;20048;-74
2022/08/14 04:46:18;;;;;;;15.80;14.30;;;;;;;19.12;65.99;100912.06;5018093;28;20033;-74
2022/08/14 04:48:45;;;;;;;16.07;14.50;;;;;;;19.04;66.30;100911.16;5035748;28;20507;-72
2022/08/14 04:51:12;;;;;;;15.63;14.07;;;;;;;18.99;66.41;100908.25;5019076;28;20288;-72
2022/08/14 04:53:42;;;;;;;15.25;13.82;;;;;;;19.05;66.22;100904.91;5027317;28;20037;-73
2022/08/14 04:56:08;;;;;;;15.75;14.15;;;;;;;19.14;65.85;100894.28;5016291;28;20021;-72
2022/08/14 04:58:33;;;;;;;14.88;13.60;;;;;;;19.21;65.64;100900.44;5020158;28;20033;-73
2022/08/14 05:01:02;;;;;;;15.65;14.20;;;;;;;19.22;65.76;100896.84;5013005;28;20024;-72
2022/08/14 05:03:32;;;;;;;15.25;13.88;;;;;;;19.21;65.84;100895.19;5015255;28;20406;-73
2022/08/14 05:06:00;;;;;;;15.70;14.13;;;;;;;19.15;66.09;100895.91;5019492;28;20030;-72
2022/08/14 05:08:25;;;;;;;;;;;;;;;19.45;63.62;100897.59;5007551;28;20049;-73
2022/08/14 05:10:53;;;;;;;15.20;13.63;;;;;;;19.26;65.81;100892.84;5006113;28;19975;-73
2022/08/14 05:13:22;;;;;;;15.25;13.85;;;;;;;19.18;66.04;100885.06;5014888;28;20449;-72
2022/08/14 05:15:48;;;;;;;15.73;14.23;;;;;;;19.21;65.88;100882.03;5036196;28;20160;-72
2022/08/14 05:18:16;;;;;;;17.60;15.70;;;;;;;19.18;66.32;100887.69;5027838;28;20519;-74
2022/08/14 05:20:45;;;;;;;17.33;14.30;;;;;;;19.27;65.32;100886.63;5035485;28;20096;-72
2022/08/14 05:23:14;;;;;;;;;;;;;;;19.49;63.60;100892.75;5029627;28;20036;-72
2022/08/14 05:25:40;;;;;;;15.75;14.25;;;;;;;19.22;66.00;100881.06;5038452;28;19916;-74
2022/08/14 05:28:09;;;;;;;16.10;14.68;;;;;;;19.23;66.33;100874.81;5031907;28;20097;-72
2022/08/14 05:30:35;;;;;;;16.67;15.15;;;;;;;19.33;65.51;100878.00;5036677;28;20024;-73
2022/08/14 05:33:00;;;;;;;17.08;15.50;;;;;;;19.24;66.59;100879.06;5026291;28;20029;-72
2022/08/14 05:35:26;;;;;;;16.50;15.00;;;;;;;19.33;66.06;100864.84;5023213;28;20029;-72
2022/08/14 05:37:52;;;;;;;15.55;14.20;;;;;;;19.40;66.26;100878.91;5031024;28;20480;-72
2022/08/14 05:40:18;;;;;;;17.25;15.57;;;;;;;19.36;66.65;100872.34;5041240;28;20033;-74
2022/08/14 05:42:43;;;;;;;17.55;15.95;;;;;;;19.33;66.26;100868.28;5032869;28;20082;-73
2022/08/14 05:45:09;;;;;;;17.77;16.23;;;;;;;19.35;66.72;100870.72;5040248;28;20143;-73
2022/08/14 05:47:39;;;;;;;18.35;16.73;;;;;;;19.43;66.68;100873.25;5019760;28;20021;-72
2022/08/14 05:50:09;;;;;;;16.83;15.32;;;;;;;19.58;65.45;100876.75;5031936;28;20025;-74
2022/08/14 05:52:35;;;;;;;17.85;16.35;;;;;;;19.44;66.64;100859.13;5030385;28;20048;-73
2022/08/14 05:55:03;;;;;;;17.67;15.98;;;;;;;19.65;65.71;100870.75;5044843;28;20055;-72
2022/08/14 05:57:28;;;;;;;16.95;15.35;;;;;;;19.72;66.33;100882.16;5038461;28;20031;-73
2022/08/14 05:59:53;;;;;;;17.38;15.88;;;;;;;19.66;66.22;100867.91;5045744;28;20427;-72
2022/08/14 06:02:19;;;;;;;17.73;16.20;;;;;;;19.63;66.40;100869.13;5026481;28;20428;-73
2022/08/14 06:04:47;;;;;;;18.10;16.45;;;;;;;19.70;66.08;100863.13;5046086;28;20075;-72
2022/08/14 06:07:13;;;;;;;18.38;16.77;;;;;;;19.73;66.49;100865.41;5039131;28;20020;-72
2022/08/14 06:09:39;;;;;;;17.25;15.75;;;;;;;19.86;66.02;100868.19;5026242;28;20053;-73
2022/08/14 06:12:05;;;;;;;16.98;15.55;;;;;;;19.88;66.08;100855.63;5024533;28;20457;-73
2022/08/14 06:14:30;;;;;;;17.35;15.85;;;;;;;20.01;65.98;100866.31;5015394;28;20029;-72
2022/08/14 06:16:56;;;;;;;17.27;15.77;;;;;;;20.03;66.27;100859.06;5033343;28;20025;-73
2022/08/14 06:19:21;;;;;;;17.27;15.77;;;;;;;20.12;66.47;100868.44;5028780;28;20374;-73
2022/08/14 06:21:46;;;;;;;17.58;16.08;;;;;;;20.16;66.41;100859.19;5031919;28;20048;-73
2022/08/14 06:24:12;;;;;;;17.27;15.88;;;;;;;20.19;66.17;100860.66;5025324;28;20029;-73
2022/08/14 06:26:37;;;;;;;16.88;15.38;;;;;;;20.30;65.83;100875.13;5025598;28;20021;-74
2022/08/14 06:29:03;;;;;;;17.23;15.68;;;;;;;20.33;66.35;100872.13;5011952;28;20128;-73
2022/08/14 06:31:28;;;;;;;16.17;14.68;;;;;;;20.44;65.41;100861.06;5035566;28;20029;-73
2022/08/14 06:33:53;;;;;;;15.52;14.07;;;;;;;20.53;65.69;100859.16;5031314;28;20052;-73
2022/08/14 06:36:19;;;;;;;15.15;13.75;;;;;;;20.67;64.52;100867.00;5022368;28;20043;-73
2022/08/14 06:38:44;;;;;;;15.50;14.15;;;;;;;20.73;64.75;100869.88;5004149;28;20540;-73
2022/08/14 06:41:10;;;;;;;15.38;13.88;;;;;;;20.78;64.92;100867.47;5015428;28;20018;-73
2022/08/14 06:43:35;;;;;;;15.57;14.15;;;;;;;20.89;64.38;100862.50;5010808;28;20057;-75
2022/08/14 06:46:01;;;;;;;15.40;14.00;;;;;;;20.98;63.86;100863.16;5015622;28;20109;-73
2022/08/14 06:48:27;;;;;;;16.15;14.60;;;;;;;21.05;64.18;100864.03;5019664;28;20013;-73
2022/08/14 06:50:54;;;;;;;14.82;13.55;;;;;;;21.19;63.33;100865.72;5032829;28;20036;-73
2022/08/14 06:53:21;;;;;;;14.73;13.30;;;;;;;21.26;63.61;100864.97;5034041;28;20025;-73
2022/08/14 06:55:47;;;;;;;15.75;14.20;;;;;;;21.32;63.66;100870.31;5018312;28;20076;-73
2022/08/14 06:58:14;;;;;;;15.30;13.80;;;;;;;21.40;63.57;100856.16;5035163;28;20040;-73
2022/08/14 07:05:44;;;;;;;15.32;13.82;;;;;;;21.51;63.87;100858.25;5027558;28;20371;-74
2022/08/14 07:06:11;;;;;;;14.02;12.82;;;;;;;21.79;63.57;100850.19;5014958;28;20112;-73
2022/08/14 07:08:37;;;;;;;13.27;11.98;;;;;;;21.86;62.76;100839.69;5017041;28;20097;-74
2022/08/14 07:11:03;;;;;;;12.43;10.70;;;;;;;21.99;61.66;100832.59;5019462;28;20458;-73
2022/08/14 07:13:28;;;;;;;11.80;10.45;;;;;;;22.10;61.41;100836.53;5013905;28;20036;-74
2022/08/14 07:15:55;;;;;;;11.02;10.02;;;;;;;22.29;60.11;100853.41;5017749;28;20621;-74
2022/08/14 07:18:26;;;;;;;10.90;9.90;;;;;;;22.38;59.71;100846.13;5024891;28;20022;-74
2022/08/14 07:20:52;;;;;;;10.75;9.75;;;;;;;22.45;59.27;100836.34;5021000;28;20047;-74
2022/08/14 07:23:18;;;;;;;11.02;9.93;;;;;;;22.55;58.45;100834.13;5010570;28;20036;-73
2022/08/14 07:25:45;;;;;;;10.43;9.43;;;;;;;22.68;58.02;100839.41;4996601;28;20376;-74
2022/08/14 07:28:23;;;;;;;10.30;9.40;;;;;;;22.74;57.99;100843.88;5012371;28;20059;-74
2022/08/14 07:30:50;;;;;;;10.07;9.05;;;;;;;22.91;57.40;100843.47;5023199;28;20029;-73
2022/08/14 07:33:16;;;;;;;10.90;9.88;;;;;;;22.92;56.81;100840.63;5023450;28;20033;-74
2022/08/14 07:35:41;;;;;;;10.30;9.35;;;;;;;22.96;56.83;100823.31;5014500;28;20025;-74
2022/08/14 07:38:07;;;;;;;10.68;9.68;;;;;;;22.98;56.21;100833.69;5037360;28;20029;-75
2022/08/14 07:40:33;;;;;;;10.88;9.70;;;;;;;23.14;56.03;100853.63;5038108;28;20535;-73
2022/08/14 07:43:00;;;;;;;10.52;9.40;;;;;;;23.17;56.05;100838.16;5036893;28;20118;-75
2022/08/14 07:45:26;;;;;;;10.75;9.75;;;;;;;23.24;56.01;100843.41;5018237;28;20040;-74
2022/08/14 07:47:55;;;;;;;10.07;9.18;;;;;;;23.26;55.34;100836.88;5037358;28;20036;-75
2022/08/14 07:50:20;;;;;;;10.68;9.02;;;;;;;23.36;55.86;100836.47;5030012;28;20033;-74
2022/08/14 07:52:48;;;;;;;10.57;9.50;;;;;;;23.42;55.25;100845.41;5015877;28;20041;-74
2022/08/14 07:55:15;;;;;;;;;;;;;;;23.58;55.41;100850.22;5007082;28;20049;-74
2022/08/14 07:57:42;;;;;;;11.82;9.25;;;;;;;23.63;54.94;100837.22;5022144;28;19920;-78
2022/08/14 08:00:12;;;;;;;11.23;10.13;;;;;;;23.70;54.25;100840.63;5019577;28;20492;-78
2022/08/14 08:02:43;;;;;;;9.73;8.70;;;;;;;23.85;54.52;100830.53;5016020;28;20022;-79
2022/08/14 08:05:10;;;;;;;10.35;9.25;;;;;;;23.89;54.23;100830.13;5011725;28;20500;-79
2022/08/14 08:07:37;;;;;;;10.15;9.15;;;;;;;24.01;54.26;100833.72;5013664;28;20050;-77
2022/08/14 08:10:29;;;;;;;10.48;9.23;;;;;;;24.12;53.80;100833.03;4997540;28;20029;-74
2022/08/14 08:12:53;;;;;;;10.45;9.35;;;;;;;24.18;53.12;100834.84;5012148;28;20041;-77
2022/08/14 08:15:19;;;;;;;10.43;9.30;;;;;;;24.28;52.81;100818.47;5011872;28;20026;-75
2022/08/14 08:17:44;;;;;;;9.90;8.90;;;;;;;24.40;52.67;100822.06;5016411;28;20466;-74
2022/08/14 08:20:24;;;;;;;10.55;9.48;;;;;;;24.45;52.44;100826.72;5021857;28;20024;-75
2022/08/14 08:22:50;;;;;;;9.75;8.75;;;;;;;24.62;52.09;100815.34;5015213;28;20049;-75
2022/08/14 08:25:17;;;;;;;9.68;8.65;;;;;;;24.79;51.63;100820.91;5010494;28;20570;-74
2022/08/14 08:27:56;;;;;;;10.05;9.05;;;;;;;24.82;51.29;100828.41;5011418;28;20104;-76
2022/08/14 08:30:22;;;;;;;9.23;8.15;;;;;;;24.94;51.49;100820.53;5015520;28;20025;-75
2022/08/14 08:32:51;;;;;;;9.95;8.95;;;;;;;25.01;50.47;100817.84;5027848;28;20052;-74
2022/08/14 08:35:28;;;;;;;12.93;8.32;;;;;;;25.05;51.00;100819.00;5010893;28;20076;-75
2022/08/14 08:37:59;;;;;;;9.13;8.27;;;;;;;25.05;50.88;100819.00;5006512;28;20560;-75
2022/08/14 08:40:30;;;;;;;9.93;9.02;;;;;;;25.11;50.43;100818.16;5012978;28;20076;-74
2022/08/14 08:42:56;;;;;;;10.07;8.80;;;;;;;25.22;50.01;100830.69;5011998;28;20512;-74
2022/08/14 08:45:22;;;;;;;10.38;9.15;;;;;;;25.29;50.12;100826.13;5034657;28;20025;-75
2022/08/14 08:47:49;;;;;;;9.80;8.48;;;;;;;25.43;50.12;100827.59;5030862;28;20361;-76
2022/08/14 08:50:21;;;;;;;9.63;8.13;;;;;;;25.60;50.37;100829.63;5027030;28;20033;-75
2022/08/14 08:52:51;;;;;;;8.80;7.90;;;;;;;25.63;49.06;100826.50;5023794;28;20101;-74
2022/08/14 08:55:37;;;;;;;9.38;8.38;;;;;;;25.68;49.94;100824.00;5040852;28;20107;-75
2022/08/14 08:58:09;;;;;;;10.18;8.60;;;;;;;25.74;49.16;100815.16;5029454;28;20044;-74
2022/08/14 09:00:36;;;;;;;9.50;8.55;;;;;;;25.80;48.19;100810.78;5026424;28;20105;-74
2022/08/14 09:03:06;;;;;;;9.63;7.90;;;;;;;25.82;48.01;100809.53;5028266;28;20375;-74
2022/08/14 09:05:33;;;;;;;9.25;8.35;;;;;;;25.99;48.02;100808.91;5021830;28;20465;-74
2022/08/14 09:08:14;;;;;;;9.63;7.40;;;;;;;26.28;47.60;100808.03;5027122;28;20057;-75
2022/08/14 09:10:40;;;;;;;10.80;7.57;;;;;;;26.43;46.98;100815.56;5033962;28;20279;-75
2022/08/14 09:13:06;;;;;;;9.82;7.38;;;;;;;26.38;46.47;100813.59;5032438;28;20384;-75
2022/08/14 09:15:31;;;;;;;15.63;8.40;;;;;;;26.47;45.88;100801.59;5013697;28;20025;-77
2022/08/14 09:17:57;;;;;;;8.40;7.50;;;;;;;26.61;45.77;100802.19;5028424;28;20029;-73
2022/08/14 09:20:22;;;;;;;8.63;7.72;;;;;;;26.69;45.77;100790.38;5025272;28;20037;-75
2022/08/14 09:22:49;;;;;;;8.80;7.82;;;;;;;26.76;46.11;100801.69;5031437;28;20473;-74
2022/08/14 09:25:16;;;;;;;8.50;7.70;;;;;;;26.89;45.35;100793.47;5013272;28;20110;-75
2022/08/14 09:27:42;;;;;;;9.55;8.00;;;;;;;27.00;45.47;100795.28;5046184;28;20020;-74
2022/08/14 09:30:08;;;;;;;8.95;8.05;;;;;;;27.04;45.75;100794.84;5032848;28;20021;-74
2022/08/14 09:33:03;;;;;;;15.90;7.85;;;;;;;27.19;46.23;100788.00;5022993;28;20034;-76
2022/08/14 09:35:46;;;;;;;7.95;7.15;;;;;;;27.32;45.77;100796.78;4950118;28;20560;-74
2022/08/14 09:38:33;;;;;;;8.82;7.93;;;;;;;27.35;44.91;100790.97;4971478;28;20062;-74
2022/08/14 09:41:12;;;;;;;8.93;8.05;;;;;;;27.49;44.57;100787.78;4960620;28;20058;-74
2022/08/14 09:43:56;;;;;;;9.45;8.18;;;;;;;27.62;44.20;100785.88;4973701;28;20030;-74
2022/08/14 09:46:21;;;;;;;9.20;7.95;;;;;;;27.69;45.08;100765.22;4964463;28;20031;-76
2022/08/14 09:48:57;;;;;;;9.05;8.07;;;;;;;27.78;45.38;100764.63;4969504;28;20530;-74
2022/08/14 09:51:24;;;;;;;9.88;8.82;;;;;;;27.80;45.20;100764.38;4963437;28;20696;-75
2022/08/14 09:54:09;;;;;;;10.50;8.32;;;;;;;27.95;45.45;100759.31;4968418;28;20129;-75
2022/08/14 09:56:49;;;;;;;9.30;8.20;;;;;;;28.07;46.27;100755.75;4961420;28;20031;-75
2022/08/14 09:59:21;;;;;;;9.20;8.30;;;;;;;28.24;46.37;100751.22;4963449;28;20055;-75
2022/08/14 10:01:47;;;;;;;10.82;8.82;;;;;;;28.26;45.59;100760.56;4945233;28;20950;-74
2022/08/14 10:04:23;;;;;;;9.55;8.45;;;;;;;28.26;45.08;100754.44;4963115;28;20030;-75
2022/08/14 10:06:50;;;;;;;10.05;9.05;;;;;;;28.36;45.27;100743.97;4950347;28;20043;-76
2022/08/14 10:09:16;;;;;;;9.57;8.68;;;;;;;28.57;44.99;100740.53;4953222;28;20064;-75
2022/08/14 10:11:56;;;;;;;10.05;8.98;;;;;;;28.63;45.07;100737.94;4968740;28;20108;-75
2022/08/14 10:14:24;;;;;;;9.23;8.32;;;;;;;28.64;43.38;100751.03;5015234;28;20167;-75
2022/08/14 10:16:53;;;;;;;8.80;7.90;;;;;;;28.67;43.91;100736.34;5011739;28;20207;-75
2022/08/14 10:19:20;;;;;;;9.35;8.25;;;;;;;28.80;43.86;100736.00;5013704;28;20646;-75
2022/08/14 10:22:00;;;;;;;9.73;8.70;;;;;;;29.00;45.03;100733.59;5014305;28;20091;-75
2022/08/14 10:24:45;;;;;;;9.90;8.60;;;;;;;29.19;44.51;100730.59;5011349;28;20517;-75
2022/08/14 10:27:24;;;;;;;10.52;8.32;;;;;;;29.22;43.71;100724.75;5008701;28;20032;-75
2022/08/14 10:29:56;;;;;;;9.50;8.45;;;;;;;29.23;41.97;100721.84;5009528;28;20122;-75
2022/08/14 10:32:21;;;;;;;9.07;8.18;;;;;;;29.44;42.84;100716.72;5012083;28;20535;-74
2022/08/14 10:34:48;;;;;;;8.32;7.45;;;;;;;29.60;42.09;100718.50;5009395;28;20037;-75
2022/08/14 10:37:18;;;;;;;8.93;8.03;;;;;;;29.55;41.52;100713.91;5010787;28;20025;-75
2022/08/14 10:39:56;;;;;;;8.93;7.82;;;;;;;29.50;41.11;100721.03;5016505;28;20528;-75
2022/08/14 10:42:22;;;;;;;8.68;7.78;;;;;;;29.56;41.55;100704.03;5015626;28;20381;-75
2022/08/14 10:44:48;;;;;;;7.57;6.88;;;;;;;29.84;39.56;100710.94;5007290;28;20029;-75
2022/08/14 10:47:17;;;;;;;9.00;6.53;;;;;;;29.96;38.49;100708.06;5017495;28;20082;-75
2022/08/14 10:49:55;;;;;;;7.68;6.07;;;;;;;29.86;38.03;100704.25;5006679;28;20944;-74
2022/08/14 10:52:26;;;;;;;7.55;5.78;;;;;;;30.03;37.20;100698.75;5010726;28;20025;-75
2022/08/14 10:55:04;;;;;;;8.00;6.00;;;;;;;30.13;36.34;100687.34;5016408;28;20392;-75
2022/08/14 10:57:29;;;;;;;7.68;6.15;;;;;;;30.39;35.87;100685.63;5029480;28;20073;-77
2022/08/14 11:00:12;;;;;;;7.43;6.00;;;;;;;30.37;37.30;100693.09;5019923;28;20030;-75
2022/08/14 11:02:40;;;;;;;7.28;6.30;;;;;;;30.26;36.04;100680.75;5019742;28;20040;-75
2022/08/14 11:05:17;;;;;;;7.93;5.55;;;;;;;30.39;36.37;100674.91;5010798;28;20028;-76
2022/08/14 11:07:54;;;;;;;6.05;5.38;;;;;;;30.30;35.60;100684.50;5009549;28;20481;-75
2022/08/14 11:10:26;;;;;;;6.47;5.47;;;;;;;30.39;33.21;100680.25;5017507;28;20057;-75
2022/08/14 11:12:55;;;;;;;6.78;5.60;;;;;;;30.53;34.49;100676.06;5020061;28;20116;-75
2022/08/14 11:15:27;;;;;;;6.60;5.90;;;;;;;30.72;34.73;100678.28;5015479;28;20501;-75
2022/08/14 11:17:55;;;;;;;6.57;5.68;;;;;;;30.78;34.17;100678.03;5004381;28;20040;-74
2022/08/14 11:20:26;;;;;;;7.25;5.53;;;;;;;30.64;33.75;100688.41;5025980;28;20028;-74
2022/08/14 11:22:53;;;;;;;6.03;5.43;;;;;;;30.72;34.21;100678.28;5033065;28;20038;-74
2022/08/14 11:25:22;;;;;;;;;;;;;;;30.91;36.24;100679.41;5024583;28;20041;-76
2022/08/14 11:27:49;;;;;;;7.20;5.22;;;;;;;30.72;32.84;100672.94;5038612;28;19951;-75
2022/08/14 11:30:21;;;;;;;7.20;5.72;;;;;;;30.77;33.45;100683.66;5028015;28;20043;-75
2022/08/14 11:32:48;;;;;;;5.88;5.25;;;;;;;30.88;32.72;100671.94;5034783;28;20510;-76
2022/08/14 11:35:16;;;;;;;6.05;5.45;;;;;;;30.80;33.22;100680.47;5030967;28;20040;-76
2022/08/14 11:37:51;;;;;;;6.03;5.40;;;;;;;30.98;33.44;100682.66;5000625;28;20139;-76